Time;durP1;ratioP1;P1;durP2;ratioP2;P2;SDS_P1;SDS_P2;PMS_P1;PMS_P2;Temp;Humidity;BMP_temperature;BMP_pressure;BME280_temperature;BME280_humidity;BME280_pressure;Samples;Min_cycle;Max_cycle;Signal;HPM_P1;HPM_P2
2024/01/22 00:01:19;;;;;;;18.20;9.30;;;;;;;-147.86;100.00;-17609.17;104892;1266;70657;-46
2024/01/22 00:03:46;;;;;;;19.10;9.80;;;;;;;-147.86;100.00;-17609.17;104860;1266;64021;-47
2024/01/22 00:06:15;;;;;;;15.90;8.90;;;;;;;-147.86;100.00;-17609.17;104896;1267;71398;-47
2024/01/22 00:08:43;;;;;;;15.70;8.50;;;;;;;-147.86;100.00;-17609.17;104979;1268;206799;-47
2024/01/22 00:11:11;;;;;;;19.10;9.10;;;;;;;-147.86;100.00;-17609.17;105039;1268;59286;-46
2024/01/22 00:13:39;;;;;;;17.40;9.10;;;;;;;-147.86;100.00;-17609.17;105119;1263;71049;-47
2024/01/22 00:16:06;;;;;;;17.70;9.40;;;;;;;-147.86;100.00;-17609.17;105089;1263;64297;-46
2024/01/22 00:18:34;;;;;;;17.80;10.20;;;;;;;-147.86;100.00;-17609.17;105052;1266;71431;-46
2024/01/22 00:21:02;;;;;;;19.10;10.10;;;;;;;-147.86;100.00;-17609.17;105110;1263;59807;-46
2024/01/22 00:23:30;;;;;;;21.00;10.30;;;;;;;-147.86;100.00;-17609.17;105135;1263;59821;-44
2024/01/22 00:25:58;;;;;;;20.60;10.50;;;;;;;-147.86;100.00;-17609.17;105140;1262;71781;-45
2024/01/22 00:28:27;;;;;;;21.20;10.90;;;;;;;-147.86;100.00;-17609.17;105128;1263;64019;-46
2024/01/22 00:30:54;;;;;;;21.70;11.40;;;;;;;-147.86;100.00;-17609.17;105090;1264;70150;-46
2024/01/22 00:33:22;;;;;;;22.60;11.20;;;;;;;-147.86;100.00;-17609.17;105129;1263;59721;-45
2024/01/22 00:35:51;;;;;;;25.30;12.30;;;;;;;-147.86;100.00;-17609.17;105082;1268;59567;-45
2024/01/22 00:38:18;;;;;;;25.00;11.80;;;;;;;-147.86;100.00;-17609.17;105162;1261;73086;-45
2024/01/22 00:40:46;;;;;;;26.10;13.40;;;;;;;-147.86;100.00;-17609.17;105045;1263;65335;-45
2024/01/22 00:43:14;;;;;;;27.80;12.70;;;;;;;-147.86;100.00;-17609.17;105054;1266;71702;-47
2024/01/22 00:45:42;;;;;;;25.40;12.10;;;;;;;-147.86;100.00;-17609.17;105255;1264;59696;-47
2024/01/22 00:48:10;;;;;;;25.40;11.80;;;;;;;-147.86;100.00;-17609.17;105235;1260;59589;-46
2024/01/22 00:50:37;;;;;;;23.60;11.60;;;;;;;-147.86;100.00;-17609.17;105241;1260;71771;-46
2024/01/22 00:53:06;;;;;;;26.40;12.10;;;;;;;-147.86;100.00;-17609.17;105210;1265;64001;-45
2024/01/22 00:55:34;;;;;;;30.30;12.40;;;;;;;-147.86;100.00;-17609.17;105250;1261;71845;-46
2024/01/22 00:58:02;;;;;;;22.10;11.50;;;;;;;-147.86;100.00;-17609.17;105175;1262;59673;-46
2024/01/22 01:00:30;;;;;;;23.60;12.90;;;;;;;-147.86;100.00;-17609.17;105224;1265;61021;-45
2024/01/22 01:47:29;;;;;;;25.60;12.80;;;;;;;-147.86;100.00;-17609.17;102670;1291;601201;-45
2024/01/22 01:49:57;;;;;;;23.10;12.00;;;;;;;-147.86;100.00;-17609.17;104802;1269;60899;-45
2024/01/22 01:52:25;;;;;;;26.00;12.70;;;;;;;-147.86;100.00;-17609.17;104800;1267;59381;-46
2024/01/22 01:54:52;;;;;;;23.80;13.10;;;;;;;-147.86;100.00;-17609.17;104835;1265;71056;-47
2024/01/22 01:57:22;;;;;;;24.30;13.30;;;;;;;-147.86;100.00;-17609.17;104837;1265;64026;-46
2024/01/22 01:59:51;;;;;;;22.40;13.00;;;;;;;-147.86;100.00;-17609.17;104816;1271;73044;-46
2024/01/22 02:02:20;;;;;;;25.50;13.90;;;;;;;-147.86;100.00;-17609.17;104915;1265;221272;-46
2024/01/22 02:04:48;;;;;;;24.90;14.00;;;;;;;-147.86;100.00;-17609.17;105035;1266;59328;-45
2024/01/22 02:07:15;;;;;;;27.60;13.50;;;;;;;-147.86;100.00;-17609.17;105050;1264;70810;-46
2024/01/22 02:09:47;;;;;;;33.50;14.80;;;;;;;-147.86;100.00;-17609.17;105053;1266;64511;-45
2024/01/22 02:12:16;;;;;;;28.90;14.20;;;;;;;-147.86;100.00;-17609.17;105103;1266;71415;-45
2024/01/22 02:14:45;;;;;;;30.30;14.50;;;;;;;-147.86;100.00;-17609.17;105133;1268;59692;-45
2024/01/22 02:17:13;;;;;;;29.10;15.10;;;;;;;-147.86;100.00;-17609.17;104897;1268;60004;-45
2024/01/22 02:19:41;;;;;;;30.50;15.30;;;;;;;-147.86;100.00;-17609.17;105069;1266;71788;-46
2024/01/22 02:47:35;;;;;;;;;;;;;;;-147.86;100.00;-17609.17;102803;1294;601184;-46
2024/01/22 02:50:04;;;;;;;24.80;13.80;;;;;;;-147.86;100.00;-17609.17;105160;1270;59341;-45
2024/01/22 02:52:31;;;;;;;30.60;14.50;;;;;;;-147.86;100.00;-17609.17;105087;1269;59962;-47
2024/01/22 02:54:59;;;;;;;31.20;15.60;;;;;;;-147.86;100.00;-17609.17;105056;1269;71007;-45
2024/01/22 02:57:26;;;;;;;32.70;15.90;;;;;;;-147.86;100.00;-17609.17;105067;1264;64447;-44
2024/01/22 02:59:55;;;;;;;30.80;15.30;;;;;;;-147.86;100.00;-17609.17;105047;1267;70376;-47
2024/01/22 03:02:22;;;;;;;31.80;15.40;;;;;;;-147.86;100.00;-17609.17;105032;1266;234130;-46
2024/01/22 03:04:50;;;;;;;37.10;16.30;;;;;;;-147.86;100.00;-17609.17;105202;1266;59322;-46
2024/01/22 03:07:18;;;;;;;29.80;16.20;;;;;;;-147.86;100.00;-17609.17;105177;1266;72711;-46
2024/01/22 03:09:46;;;;;;;32.00;16.60;;;;;;;-147.86;100.00;-17609.17;105223;1267;64017;-47
2024/01/22 03:12:14;;;;;;;26.20;15.30;;;;;;;-147.86;100.00;-17609.17;105186;1272;71351;-46
2024/01/22 03:14:42;;;;;;;35.70;16.80;;;;;;;-147.86;100.00;-17609.17;105185;1265;59758;-45
2024/01/22 03:17:09;;;;;;;31.10;15.50;;;;;;;-147.86;100.00;-17609.17;105263;1263;59596;-46
2024/01/22 03:19:37;;;;;;;36.90;15.70;;;;;;;-147.86;100.00;-17609.17;105184;1264;71779;-45
2024/01/22 03:22:05;;;;;;;35.60;15.20;;;;;;;-147.86;100.00;-17609.17;105230;1266;64072;-46
2024/01/22 03:24:33;;;;;;;31.60;16.30;;;;;;;-147.86;100.00;-17609.17;105146;1266;72658;-46
2024/01/22 03:27:00;;;;;;;35.40;16.50;;;;;;;-147.86;100.00;-17609.17;105187;1267;59759;-46
2024/01/22 03:29:28;;;;;;;33.30;16.10;;;;;;;-147.86;100.00;-17609.17;105210;1267;59715;-46
2024/01/22 03:31:56;;;;;;;29.40;15.10;;;;;;;-147.86;100.00;-17609.17;105147;1267;71473;-45
2024/01/22 03:34:24;;;;;;;31.00;14.90;;;;;;;-147.86;100.00;-17609.17;105679;1264;64031;-48
2024/01/22 03:36:51;;;;;;;31.80;16.10;;;;;;;-147.86;100.00;-17609.17;105642;1260;71357;-47
2024/01/22 03:39:19;;;;;;;30.40;15.30;;;;;;;-147.86;100.00;-17609.17;105649;1259;59791;-45
2024/01/22 03:41:47;;;;;;;33.10;16.30;;;;;;;-147.86;100.00;-17609.17;105715;1261;59802;-46
2024/01/22 03:44:15;;;;;;;30.50;15.80;;;;;;;-147.86;100.00;-17609.17;105641;1260;71779;-45
2024/01/22 03:46:43;;;;;;;31.30;15.70;;;;;;;-147.86;100.00;-17609.17;105668;1254;65258;-46
2024/01/22 03:49:11;;;;;;;32.70;16.60;;;;;;;-147.86;100.00;-17609.17;105617;1260;71420;-46
2024/01/22 03:51:39;;;;;;;36.50;16.50;;;;;;;-147.86;100.00;-17609.17;105616;1260;59751;-46
2024/01/22 03:54:07;;;;;;;33.10;17.30;;;;;;;-147.86;100.00;-17609.17;105936;1257;59672;-45
2024/01/22 04:47:26;;;;;;;;;;;;;;;-147.86;100.00;-17609.17;102934;1289;600014;-46
2024/01/22 04:49:53;;;;;;;31.60;13.60;;;;;;;-147.86;100.00;-17609.17;105189;1268;59292;-46
2024/01/22 04:52:21;;;;;;;26.40;14.10;;;;;;;-147.86;100.00;-17609.17;105102;1269;59276;-45
2024/01/22 04:54:49;;;;;;;33.80;17.20;;;;;;;-147.86;100.00;-17609.17;105032;1269;70430;-47
2024/01/22 04:57:18;;;;;;;35.70;16.00;;;;;;;-147.86;100.00;-17609.17;105732;1253;62923;-46
2024/01/22 04:59:46;;;;;;;28.40;15.70;;;;;;;-147.86;100.00;-17609.17;105699;1254;72562;-47
2024/01/22 05:02:14;;;;;;;24.20;14.30;;;;;;;-147.86;100.00;-17609.17;105709;1251;381952;-45
2024/01/22 05:04:42;;;;;;;32.60;17.20;;;;;;;-147.86;100.00;-17609.17;105955;1252;59294;-45
2024/01/22 05:07:10;;;;;;;35.10;16.80;;;;;;;-147.86;100.00;-17609.17;105984;1256;71052;-47
2024/01/22 05:09:37;;;;;;;36.50;17.70;;;;;;;-147.86;100.00;-17609.17;105966;1251;63296;-45
2024/01/22 05:12:06;;;;;;;34.00;17.10;;;;;;;-147.86;100.00;-17609.17;106021;1251;71402;-47
2024/01/22 05:14:35;;;;;;;37.50;16.50;;;;;;;-147.86;100.00;-17609.17;105978;1251;59688;-46
2024/01/22 05:17:03;;;;;;;36.10;16.10;;;;;;;-147.86;100.00;-17609.17;106026;1250;59979;-46
2024/01/22 05:19:31;;;;;;;33.90;16.80;;;;;;;-147.86;100.00;-17609.17;105980;1256;73036;-45
2024/01/22 05:21:58;;;;;;;32.80;16.60;;;;;;;-147.86;100.00;-17609.17;106001;1251;63892;-45
2024/01/22 05:24:27;;;;;;;30.00;16.70;;;;;;;-147.86;100.00;-17609.17;105981;1251;71363;-45
2024/01/22 05:26:55;;;;;;;34.30;17.70;;;;;;;-147.86;100.00;-17609.17;105985;1251;59761;-47
2024/01/22 05:29:23;;;;;;;29.20;15.90;;;;;;;-147.86;100.00;-17609.17;105995;1251;59954;-47
2024/01/22 05:31:50;;;;;;;33.70;16.00;;;;;;;-147.86;100.00;-17609.17;105945;1251;71802;-45
2024/01/22 05:34:18;;;;;;;28.50;15.00;;;;;;;-147.86;100.00;-17609.17;106017;1251;64400;-46
2024/01/22 05:36:46;;;;;;;35.50;16.10;;;;;;;-147.86;100.00;-17609.17;105958;1255;71737;-46
2024/01/22 05:39:15;;;;;;;33.10;17.00;;;;;;;-147.86;100.00;-17609.17;105965;1251;59719;-46
2024/01/22 05:41:43;;;;;;;37.50;16.70;;;;;;;-147.86;100.00;-17609.17;106018;1257;59628;-46
2024/01/22 05:44:11;;;;;;;33.10;15.20;;;;;;;-147.86;100.00;-17609.17;106023;1256;71756;-45
2024/01/22 05:46:39;;;;;;;31.70;15.50;;;;;;;-147.86;100.00;-17609.17;105970;1252;64074;-46
2024/01/22 05:49:07;;;;;;;30.90;15.10;;;;;;;-147.86;100.00;-17609.17;106000;1254;71648;-46
2024/01/22 05:51:35;;;;;;;32.60;15.60;;;;;;;-147.86;100.00;-17609.17;105972;1255;59729;-46
2024/01/22 05:54:03;;;;;;;40.20;17.20;;;;;;;-147.86;100.00;-17609.17;105980;1251;59605;-46
2024/01/22 05:56:32;;;;;;;39.80;17.20;;;;;;;-147.86;100.00;-17609.17;105914;1251;71749;-46
2024/01/22 05:59:00;;;;;;;36.90;16.50;;;;;;;-147.86;100.00;-17609.17;105921;1251;63925;-45
2024/01/22 06:01:31;;;;;;;34.10;15.20;;;;;;;-147.86;100.00;-17609.17;105916;1253;71450;-46
2024/01/22 06:03:59;;;;;;;31.90;14.20;;;;;;;-147.86;100.00;-17609.17;105901;1251;59634;-46
2024/01/22 06:06:27;;;;;;;30.40;16.40;;;;;;;-147.86;100.00;-17609.17;105951;1257;59637;-45
2024/01/22 06:08:56;;;;;;;36.10;16.30;;;;;;;-147.86;100.00;-17609.17;105879;1251;71840;-45
2024/01/22 06:11:24;;;;;;;31.00;15.30;;;;;;;-147.86;100.00;-17609.17;105965;1256;63962;-45
2024/01/22 06:13:51;;;;;;;34.40;16.00;;;;;;;-147.86;100.00;-17609.17;105904;1254;71439;-44
2024/01/22 06:16:28;;;;;;;32.60;14.70;;;;;;;-147.86;100.00;-17609.17;105966;1253;59698;-46
2024/01/22 06:18:56;;;;;;;28.20;14.40;;;;;;;-147.86;100.00;-17609.17;105971;1253;59541;-46
2024/01/22 06:21:25;;;;;;;32.60;15.30;;;;;;;-147.86;100.00;-17609.17;105907;1257;72986;-46
2024/01/22 06:23:53;;;;;;;36.60;14.90;;;;;;;-147.86;100.00;-17609.17;105967;1251;63911;-43
2024/01/22 06:26:22;;;;;;;30.00;14.50;;;;;;;-147.86;100.00;-17609.17;105943;1251;72747;-46
2024/01/22 06:28:52;;;;;;;29.60;14.20;;;;;;;-147.86;100.00;-17609.17;105966;1250;60872;-46
2024/01/22 06:31:20;;;;;;;29.80;13.80;;;;;;;-147.86;100.00;86661.70;105980;1256;59685;-47
2024/01/22 06:33:49;;;;;;;28.80;12.60;;;;;;;-147.86;100.00;99038.82;105881;1251;71747;-46
2024/01/22 06:36:17;;;;;;;31.40;14.30;;;;;;;-147.86;100.00;96307.60;105982;1254;65169;-46
2024/01/22 06:38:45;;;;;;;28.20;14.10;;;;;;;-147.86;100.00;93462.73;105906;1256;71377;-45
2024/01/22 06:41:14;;;;;;;30.60;12.60;;;;;;;-147.86;100.00;47964.66;105890;1251;60804;-45
2024/01/22 06:43:42;;;;;;;24.40;12.10;;;;;;;-147.86;100.00;62665.20;106005;1254;59733;-46
2024/01/22 06:46:10;;;;;;;28.70;12.30;;;;;;;-147.86;100.00;51316.90;105937;1256;72006;-46
2024/01/22 06:48:38;;;;;;;18.90;11.10;;;;;;;-147.86;100.00;47736.15;105997;1250;64199;-46
2024/01/22 06:51:08;;;;;;;24.40;10.60;;;;;;;-147.86;100.00;20438.01;105921;1254;71402;-45
2024/01/22 06:53:37;;;;;;;22.50;9.70;;;;;;;-147.86;100.00;10809.09;105938;1256;59752;-45
2024/01/22 06:56:07;;;;;;;18.60;10.10;;;;;;;-147.86;100.00;21892.02;105931;1250;60430;-46
2024/01/22 06:58:35;;;;;;;20.30;11.10;;;;;;;-147.86;100.00;23048.07;105938;1251;72101;-46
2024/01/22 07:01:04;;;;;;;26.00;11.00;;;;;;;-147.86;100.00;45436.44;105965;1251;63312;-46
2024/01/22 07:03:32;;;;;;;22.60;10.10;;;;;;;-147.86;100.00;23568.49;105743;1257;71392;-44
2024/01/22 07:06:00;;;;;;;18.10;10.10;;;;;;;-147.86;100.00;14157.17;105920;1255;59692;-45
2024/01/22 07:08:28;;;;;;;20.10;9.70;;;;;;;-147.86;100.00;6431.15;105923;1256;59633;-46
2024/01/22 07:10:56;;;;;;;21.50;10.50;;;;;;;-147.86;100.00;11404.98;105900;1252;72977;-46
2024/01/22 07:13:24;;;;;;;23.90;10.50;;;;;;;-147.86;100.00;14012.20;105960;1251;63981;-45
2024/01/22 07:15:52;;;;;;;19.90;11.10;;;;;;;-147.86;100.00;49115.98;105896;1255;71456;-46
2024/01/22 07:18:21;;;;;;;21.20;10.50;;;;;;;-147.86;100.00;50421.77;105912;1254;59739;-44
2024/01/22 07:20:49;;;;;;;15.60;8.70;;;;;;;-147.86;100.00;42528.71;105998;1257;59718;-45
2024/01/22 07:23:17;;;;;;;23.20;10.40;;;;;;;-147.86;100.00;57887.73;105937;1251;73059;-45
2024/01/22 07:25:45;;;;;;;30.50;15.90;;;;;;;-147.86;100.00;50981.59;105926;1256;64131;-46
2024/01/22 07:28:14;;;;;;;299.90;112.90;;;;;;;-147.86;100.00;43708.23;105955;1252;72660;-46
2024/01/22 07:30:41;;;;;;;55.20;20.40;;;;;;;-147.86;100.00;21454.27;105937;1251;59637;-45
2024/01/22 07:33:10;;;;;;;40.80;15.00;;;;;;;-147.86;100.00;65502.86;105876;1257;60110;-46
2024/01/22 07:35:38;;;;;;;27.50;11.20;;;;;;;-147.86;100.00;36299.40;105938;1251;73009;-45
2024/01/22 07:38:07;;;;;;;711.00;320.10;;;;;;;-147.86;100.00;41993.25;105950;1251;63958;-46
2024/01/22 07:40:35;;;;;;;322.60;113.10;;;;;;;-147.86;100.00;45143.83;105965;1256;71236;-47
2024/01/22 07:43:05;;;;;;;826.00;345.70;;;;;;;-147.86;100.00;61154.59;105761;1252;59753;-44
2024/01/22 07:45:33;;;;;;;1999.90;845.10;;;;;;;-147.86;100.00;50941.84;105955;1256;59698;-45
2024/01/22 07:48:01;;;;;;;603.00;216.60;;;;;;;-147.86;100.00;76046.23;105941;1251;71739;-46
2024/01/22 07:50:30;;;;;;;1822.20;612.20;;;;;;;-147.86;100.00;48130.62;105948;1257;64070;-47
2024/01/22 07:52:57;;;;;;;1610.80;547.00;;;;;;;-147.86;100.00;75363.23;105889;1251;72625;-45
2024/01/22 07:55:26;;;;;;;116.10;38.80;;;;;;;-147.86;100.00;87834.17;105908;1254;59732;-44
2024/01/22 07:57:53;;;;;;;67.50;28.50;;;;;;;-147.86;100.00;81075.64;105912;1256;60514;-46
2024/01/22 08:00:21;;;;;;;61.60;25.40;;;;;;;-147.86;100.00;79017.19;105967;1252;71940;-44
2024/01/22 08:02:49;;;;;;;135.20;66.10;;;;;;;-147.86;100.00;78612.45;109645;1250;64686;-46
2024/01/22 08:05:17;;;;;;;211.40;118.60;;;;;;;-147.86;100.00;84578.26;109627;1252;71058;-45
2024/01/22 08:07:44;;;;;;;281.10;153.90;;;;;;;-147.86;100.00;93399.60;109547;1250;60547;-45
2024/01/22 08:10:13;;;;;;;122.20;63.30;;;;;;;-147.86;100.00;100764.13;109613;1251;58788;-45
2024/01/22 08:12:41;;;;;;;73.70;38.60;;;;;;;-147.86;100.00;98226.96;109639;1251;71728;-46
2024/01/22 08:15:14;;;;;;;60.80;36.60;;;;;;;-147.86;100.00;84333.67;109683;1251;65136;-45
2024/01/22 08:17:45;;;;;;;25.30;14.60;;;;;;;-147.86;100.00;100103.23;109654;1250;71648;-45
2024/01/22 08:20:16;;;;;;;23.90;10.30;;;;;;;-147.86;100.00;100510.27;109637;1251;57973;-45
2024/01/22 08:22:46;;;;;;;21.80;11.80;;;;;;;-147.86;100.00;102849.18;109644;1250;58729;-45
2024/01/22 08:25:19;;;;;;;20.40;11.60;;;;;;;-147.86;100.00;100916.81;109591;1256;71736;-46
2024/01/22 08:27:47;;;;;;;42.80;30.90;;;;;;;-147.86;100.00;101475.80;109617;1251;64015;-45
2024/01/22 08:30:15;;;;;;;22.80;9.50;;;;;;;-147.86;100.00;101476.75;109660;1250;71643;-45
2024/01/22 08:32:42;;;;;;;22.10;11.00;;;;;;;-147.86;100.00;104325.04;109641;1250;59255;-45
2024/01/22 08:35:11;;;;;;;14.80;9.10;;;;;;;-147.86;100.00;101377.13;109621;1250;58744;-46
2024/01/22 08:37:39;;;;;;;19.40;9.40;;;;;;;-147.86;100.00;104019.58;109598;1254;73002;-45
2024/01/22 08:40:08;;;;;;;20.20;9.40;;;;;;;-147.86;100.00;106259.38;109673;1250;65168;-46
2024/01/22 08:45:53;;;;;;;19.00;8.90;;;;;;;-147.86;100.00;96720.13;102700;1293;601232;-45
2024/01/22 08:48:21;;;;;;;17.20;8.80;;;;;;;-147.86;100.00;104884.88;104870;1272;61416;-45
2024/01/22 08:50:49;;;;;;;28.20;10.00;;;;;;;-147.86;100.00;110590.27;105070;1272;59631;-45
2024/01/22 08:53:18;;;;;;;36.70;10.60;;;;;;;-147.86;100.00;110795.35;104873;1265;72599;-46
2024/01/22 08:55:46;;;;;;;21.10;9.20;;;;;;;-147.86;100.00;110641.23;105071;1270;64088;-47
2024/01/22 08:58:15;;;;;;;22.90;10.30;;;;;;;-147.86;100.00;110335.85;104903;1270;73253;-46
2024/01/22 09:00:43;;;;;;;21.50;10.00;;;;;;;-147.86;100.00;110540.11;104868;1264;388962;-46
2024/01/22 09:03:11;;;;;;;19.20;9.80;;;;;;;-147.86;100.00;110590.67;105153;1264;62202;-46
2024/01/22 09:05:39;;;;;;;19.70;10.60;;;;;;;-147.86;100.00;110795.35;105190;1270;72077;-45
2024/01/22 09:08:07;;;;;;;19.80;10.00;;;;;;;-147.86;100.00;110795.35;105194;1269;64501;-45
2024/01/22 09:10:35;;;;;;;20.00;10.00;;;;;;;-147.86;100.00;110795.35;105156;1270;71459;-45
2024/01/22 09:13:03;;;;;;;15.60;9.30;;;;;;;-147.86;100.00;110693.00;105113;1264;59640;-45
2024/01/22 09:15:32;;;;;;;20.60;10.50;;;;;;;-147.86;100.00;110795.35;105161;1269;59947;-46
2024/01/22 09:18:00;;;;;;;19.10;9.70;;;;;;;-147.86;100.00;110795.35;105149;1268;71919;-45
2024/01/22 09:20:30;;;;;;;16.20;10.00;;;;;;;-147.86;100.00;110795.35;105143;1264;64058;-47
2024/01/22 09:22:58;;;;;;;20.00;10.70;;;;;;;-147.86;100.00;110795.35;105148;1268;72595;-47
2024/01/22 09:25:26;;;;;;;18.40;10.20;;;;;;;-147.86;100.00;110795.35;105145;1267;59649;-46
2024/01/22 09:27:53;;;;;;;21.40;10.70;;;;;;;-147.86;100.00;110795.35;105146;1270;59663;-46
2024/01/22 09:30:21;;;;;;;23.00;10.30;;;;;;;-147.86;100.00;110795.35;104918;1269;75025;-46
2024/01/22 09:32:50;;;;;;;20.60;10.20;;;;;;;-147.86;100.00;110795.35;105158;1269;65144;-45
2024/01/22 09:35:18;;;;;;;17.50;9.90;;;;;;;-147.86;100.00;110795.35;105223;1266;72482;-45
2024/01/22 09:37:46;;;;;;;21.90;10.60;;;;;;;-147.86;100.00;110795.35;105106;1269;63050;-46
2024/01/22 09:40:14;;;;;;;19.10;10.00;;;;;;;-147.86;100.00;110795.35;105229;1265;59653;-48
2024/01/22 09:42:53;;;;;;;18.50;10.50;;;;;;;-147.86;100.00;110795.35;105088;1269;75213;-47
2024/01/22 09:45:20;;;;;;;18.20;10.30;;;;;;;-147.86;100.00;110795.35;104940;1270;64039;-47
2024/01/22 09:47:48;;;;;;;18.30;10.00;;;;;;;-147.86;100.00;110795.35;104862;1267;71450;-47
2024/01/22 09:50:17;;;;;;;17.50;8.80;;;;;;;-147.86;100.00;110795.35;105139;1269;59717;-47
2024/01/22 09:52:45;;;;;;;17.90;9.30;;;;;;;-147.86;100.00;110795.35;104859;1264;62302;-47
2024/01/22 09:55:13;;;;;;;19.80;9.20;;;;;;;-147.86;100.00;110795.35;104917;1267;73779;-46
2024/01/22 09:57:43;;;;;;;14.00;9.10;;;;;;;-147.86;100.00;110795.35;105172;1269;65262;-46
2024/01/22 10:00:13;;;;;;;27.90;18.20;;;;;;;-147.86;100.00;110795.35;105100;1269;73650;-45
2024/01/22 10:02:41;;;;;;;20.60;9.80;;;;;;;-147.86;100.00;110795.35;104800;1272;59596;-45
2024/01/22 10:05:09;;;;;;;15.10;8.70;;;;;;;-147.86;100.00;110795.35;104945;1279;59598;-45
2024/01/22 10:07:36;;;;;;;14.80;9.20;;;;;;;-147.86;100.00;110795.35;105140;1270;71767;-45
2024/01/22 10:10:05;;;;;;;21.90;9.80;;;;;;;-147.86;100.00;110795.35;104873;1269;65030;-44
2024/01/22 10:12:59;;;;;;;21.80;8.90;;;;;;;-147.86;100.00;110795.35;105109;1270;72519;-44
2024/01/22 10:15:28;;;;;;;17.10;8.40;;;;;;;-147.86;100.00;110795.35;104850;1279;60683;-44
2024/01/22 10:18:26;;;;;;;14.30;8.40;;;;;;;-147.86;100.00;110795.35;105153;1270;60654;-45
2024/01/22 10:20:56;;;;;;;20.00;9.40;;;;;;;-147.86;100.00;110795.35;104776;1266;75068;-44
2024/01/22 10:23:24;;;;;;;20.80;10.80;;;;;;;-147.86;100.00;110795.35;104846;1265;63981;-46
2024/01/22 10:26:05;;;;;;;39.70;20.70;;;;;;;-147.86;100.00;110795.35;105071;1270;74847;-45
2024/01/22 10:28:32;;;;;;;22.40;13.10;;;;;;;-147.86;100.00;110795.35;104876;1269;59736;-46
2024/01/22 10:31:02;;;;;;;14.70;8.90;;;;;;;-147.86;100.00;91501.71;105079;1270;59615;-44
2024/01/22 10:33:30;;;;;;;16.80;7.60;;;;;;;-147.86;100.00;110795.35;104901;1269;73822;-44
2024/01/22 10:36:16;;;;;;;11.40;6.40;;;;;;;-147.86;100.00;94223.84;104895;1267;66832;-45
2024/01/22 10:38:48;;;;;;;9.80;5.20;;;;;;;-147.86;100.00;110795.35;105138;1269;72412;-46
2024/01/22 10:41:20;;;;;;;14.20;6.50;;;;;;;-147.86;100.00;110795.35;104891;1267;59767;-46
2024/01/22 10:43:51;;;;;;;11.30;6.30;;;;;;;-147.86;100.00;110795.35;105147;1269;60223;-47
2024/01/22 10:46:19;;;;;;;14.60;7.30;;;;;;;-147.86;100.00;110795.35;104893;1279;74320;-47
2024/01/22 10:48:47;;;;;;;11.30;6.20;;;;;;;-147.86;100.00;110795.35;104790;1272;67365;-50
2024/01/22 10:51:16;;;;;;;18.10;8.90;;;;;;;-147.86;100.00;110795.35;104884;1279;72545;-50
2024/01/22 10:53:45;;;;;;;18.00;9.00;;;;;;;-147.86;100.00;110795.35;104847;1268;61232;-51
2024/01/22 10:56:17;;;;;;;11.50;6.10;;;;;;;-147.86;100.00;66881.73;104921;1264;61097;-54
2024/01/22 10:58:46;;;;;;;9.10;5.30;;;;;;;-147.86;100.00;110795.35;105100;1266;73058;-50
2024/01/22 11:01:19;;;;;;;14.50;8.70;;;;;;;-147.86;100.00;110795.35;104800;1280;66306;-53
2024/01/22 11:03:52;;;;;;;36.30;19.70;;;;;;;-147.86;100.00;110795.35;105187;1266;71349;-50
2024/01/22 11:06:23;;;;;;;88.30;47.00;;;;;;;-147.86;100.00;110795.35;104918;1268;61913;-53
2024/01/22 11:08:54;;;;;;;29.40;15.80;;;;;;;-147.86;100.00;110795.35;105194;1266;62028;-51
2024/01/22 11:11:26;;;;;;;12.90;8.20;;;;;;;-147.86;100.00;110795.35;105262;1264;74125;-53
2024/01/22 11:13:56;;;;;;;16.50;10.10;;;;;;;-147.86;100.00;96245.23;105211;1264;63582;-52
2024/01/22 11:16:24;;;;;;;15.00;8.40;;;;;;;-147.86;100.00;110795.35;105220;1266;72067;-53
2024/01/22 11:19:00;;;;;;;18.80;11.00;;;;;;;-147.86;100.00;110795.35;105232;1262;59655;-54
2024/01/22 11:21:37;;;;;;;18.10;7.90;;;;;;;-147.86;100.00;110795.35;105252;1265;62023;-55
2024/01/22 11:24:17;;;;;;;15.40;7.80;;;;;;;-147.86;100.00;110640.85;105240;1264;75273;-51
2024/01/22 11:26:52;;;;;;;13.10;7.50;;;;;;;-147.86;100.00;110795.35;105282;1266;63785;-50
2024/01/22 11:29:29;;;;;;;;;;;;;;;-147.86;100.00;110794.95;105255;1266;74413;-52
2024/01/22 11:32:25;;;;;;;15.60;8.30;;;;;;;-147.86;100.00;110642.04;105720;1261;59788;-54
2024/01/22 11:34:56;;;;;;;13.20;7.50;;;;;;;-147.86;100.00;110795.35;105704;1260;61976;-51
2024/01/22 11:37:36;;;;;;;13.90;7.40;;;;;;;-147.86;100.00;110795.35;105829;1258;73447;-55
2024/01/22 11:40:12;;;;;;;11.80;6.80;;;;;;;-147.86;100.00;110795.35;105839;1258;63685;-53
2024/01/22 11:42:40;;;;;;;18.10;7.40;;;;;;;-147.86;100.00;110795.35;105879;1255;73784;-53
2024/01/22 11:45:13;;;;;;;15.00;6.90;;;;;;;-147.86;100.00;110795.35;105643;1260;60840;-52
2024/01/22 11:47:42;;;;;;;15.30;7.10;;;;;;;-147.86;100.00;107082.31;105897;1254;59602;-50
2024/01/22 11:50:13;;;;;;;11.50;6.50;;;;;;;-147.86;100.00;110795.35;105729;1254;73034;-53
2024/01/22 11:52:42;;;;;;;12.90;7.20;;;;;;;-147.86;100.00;110795.35;105706;1260;64409;-50
2024/01/22 11:55:11;;;;;;;14.00;7.50;;;;;;;-147.86;100.00;110795.35;105678;1254;72139;-48
2024/01/22 11:57:39;;;;;;;12.60;6.80;;;;;;;-147.86;100.00;110795.35;105819;1254;59637;-51
2024/01/22 12:00:11;;;;;;;15.00;6.90;;;;;;;-147.86;100.00;110795.35;105855;1254;59851;-55
2024/01/22 12:02:41;;;;;;;13.80;7.20;;;;;;;-147.86;100.00;110795.35;105683;1260;73379;-52
2024/01/22 12:05:17;;;;;;;16.40;9.20;;;;;;;-147.86;100.00;110795.35;105875;1258;65574;-51
2024/01/22 12:07:47;;;;;;;12.10;7.20;;;;;;;-147.86;100.00;110795.35;105700;1254;74059;-54
2024/01/22 12:13:16;;;;;;;15.00;7.40;;;;;;;-147.86;100.00;84858.82;102505;1290;603823;-50
2024/01/22 12:15:43;;;;;;;14.70;7.10;;;;;;;-147.86;100.00;110795.35;105042;1266;59464;-54
2024/01/22 12:18:11;;;;;;;14.60;7.60;;;;;;;-147.86;100.00;110795.35;105079;1266;60603;-55
2024/01/22 12:20:38;;;;;;;10.60;6.30;;;;;;;-147.86;100.00;110795.35;105154;1266;73529;-51
2024/01/22 12:23:06;;;;;;;10.40;6.40;;;;;;;-147.86;100.00;110795.35;105055;1268;64673;-50
2024/01/22 12:25:35;;;;;;;15.70;7.80;;;;;;;-147.86;100.00;110795.35;104931;1266;214405;-48
2024/01/22 12:28:15;;;;;;;18.50;10.30;;;;;;;-147.86;100.00;110795.35;105216;1265;61029;-53
2024/01/22 12:30:44;;;;;;;62.00;36.70;;;;;;;-147.86;100.00;110234.42;105408;1260;62027;-51
2024/01/22 12:33:26;;;;;;;61.80;25.90;;;;;;;-147.86;100.00;110795.35;105439;1260;71459;-53
2024/01/22 12:36:06;;;;;;;79.50;38.70;;;;;;;-147.86;100.00;110795.35;105445;1262;65387;-53
2024/01/22 12:38:36;;;;;;;207.10;100.40;;;;;;;-147.86;100.00;110795.35;105442;1260;71642;-50
2024/01/22 12:41:08;;;;;;;31.90;14.90;;;;;;;-147.86;100.00;110795.35;105402;1262;60429;-50
2024/01/22 12:43:36;;;;;;;20.40;10.10;;;;;;;-147.86;100.00;110795.35;106008;1253;60778;-54
2024/01/22 12:46:07;;;;;;;33.10;15.00;;;;;;;-147.86;100.00;110794.95;105939;1255;74352;-51
2024/01/22 12:48:35;;;;;;;33.30;14.70;;;;;;;-147.86;100.00;110795.35;105965;1255;65108;-54
2024/01/22 12:51:07;;;;;;;16.10;7.90;;;;;;;-147.86;100.00;110795.35;105914;1256;74295;-52
2024/01/22 12:53:34;;;;;;;16.60;7.80;;;;;;;-147.86;100.00;110642.04;105960;1256;59635;-53
2024/01/22 12:56:03;;;;;;;24.30;11.10;;;;;;;-147.86;100.00;110795.35;105924;1251;59737;-53
2024/01/22 12:58:31;;;;;;;36.90;14.80;;;;;;;-147.86;100.00;110795.35;105955;1253;71142;-53